Time;durP1;ratioP1;P1;durP2;ratioP2;P2;SDS_P1;SDS_P2;PMS_P1;PMS_P2;Temp;Humidity;BMP_temperature;BMP_pressure;BME280_temperature;BME280_humidity;BME280_pressure;Samples;Min_cycle;Max_cycle;Signal;HPM_P1;HPM_P2
2022/03/04 00:00:25;;;;;;;17.27;10.30;;;4.60;99.90;;;;;;5109881;27;20393;-71
2022/03/04 00:02:52;;;;;;;19.27;9.68;;;4.90;99.90;;;;;;5081387;28;20395;-71
2022/03/04 00:05:18;;;;;;;16.35;10.43;;;4.80;99.90;;;;;;5065294;28;20541;-70
2022/03/04 00:07:44;;;;;;;16.90;9.43;;;4.50;99.90;;;;;;5107686;27;20044;-72
2022/03/04 00:10:09;;;;;;;18.83;9.98;;;4.50;99.90;;;;;;5080792;28;20127;-71
2022/03/04 00:12:35;;;;;;;19.42;10.57;;;5.30;99.90;;;;;;5093141;27;20047;-71
2022/03/04 00:15:01;;;;;;;15.38;9.73;;;4.80;99.90;;;;;;5087318;27;20150;-71
2022/03/04 00:17:27;;;;;;;20.88;10.05;;;4.70;99.90;;;;;;5069619;28;20463;-72
2022/03/04 00:19:53;;;;;;;16.52;9.32;;;4.70;99.90;;;;;;5050577;27;20040;-71
2022/03/04 00:22:18;;;;;;;17.17;9.63;;;4.50;99.90;;;;;;5082932;27;20419;-72
2022/03/04 00:24:45;;;;;;;17.80;9.75;;;4.50;99.90;;;;;;5079462;27;20040;-71
2022/03/04 00:27:10;;;;;;;20.27;10.32;;;4.30;99.90;;;;;;5068520;28;20685;-72
2022/03/04 00:29:36;;;;;;;16.08;10.18;;;4.50;99.90;;;;;;5080908;28;20055;-72
2022/03/04 00:32:04;;;;;;;18.40;10.35;;;4.20;99.90;;;;;;5093938;27;20039;-72
2022/03/04 00:34:29;;;;;;;15.52;9.35;;;4.20;99.90;;;;;;5073278;28;20035;-72
2022/03/04 00:36:55;;;;;;;17.25;10.15;;;4.20;99.90;;;;;;5094091;27;20100;-72
2022/03/04 00:39:24;;;;;;;19.88;11.57;;;4.20;99.90;;;;;;5089622;27;20051;-72
2022/03/04 00:41:51;;;;;;;17.98;9.75;;;4.40;99.90;;;;;;5080705;28;20092;-72
2022/03/04 00:44:19;;;;;;;15.63;9.20;;;4.20;99.90;;;;;;5093430;28;20130;-73
2022/03/04 00:46:46;;;;;;;16.77;8.98;;;4.10;99.90;;;;;;5081035;28;20048;-72
2022/03/04 00:49:12;;;;;;;17.95;9.77;;;4.40;99.90;;;;;;5095916;27;20084;-72
2022/03/04 00:51:37;;;;;;;16.95;9.85;;;4.40;99.90;;;;;;5103540;27;20530;-73
2022/03/04 00:54:03;;;;;;;18.02;11.15;;;4.40;99.90;;;;;;5078515;28;20038;-73
2022/03/04 01:07:28;;;;;;;21.50;10.10;;;4.10;99.90;;;;;;4999965;28;20096;-80
2022/03/04 01:09:55;;;;;;;18.80;10.57;;;4.30;99.90;;;;;;5000190;28;20410;-78
2022/03/04 01:12:20;;;;;;;15.88;9.68;;;4.00;99.90;;;;;;4972466;28;20099;-78
2022/03/04 01:14:47;;;;;;;18.25;9.88;;;4.10;99.90;;;;;;4979819;28;20050;-79
2022/03/04 01:17:13;;;;;;;19.45;10.98;;;4.30;99.90;;;;;;4973724;28;20042;-80
2022/03/04 01:19:39;;;;;;;21.95;10.88;;;4.50;99.90;;;;;;4988980;28;20512;-80
2022/03/04 01:22:04;;;;;;;18.95;10.60;;;4.30;99.90;;;;;;4971501;28;20124;-80
2022/03/04 01:24:30;;;;;;;22.30;10.50;;;4.20;99.90;;;;;;4966431;28;20045;-77
2022/03/04 01:26:56;;;;;;;25.05;11.73;;;4.50;99.90;;;;;;4978326;28;20056;-78
2022/03/04 01:29:22;;;;;;;18.52;11.43;;;4.40;99.90;;;;;;4968531;28;20052;-77
2022/03/04 01:31:47;;;;;;;21.42;10.18;;;4.30;99.90;;;;;;4975707;28;20425;-79
2022/03/04 01:34:13;;;;;;;22.85;11.45;;;4.40;99.90;;;;;;4948981;28;20133;-80
2022/03/04 01:36:39;;;;;;;21.83;12.15;;;4.40;99.90;;;;;;4976321;28;20477;-78
2022/03/04 01:39:04;;;;;;;20.25;11.07;;;4.30;99.90;;;;;;4955945;28;20038;-79
2022/03/04 01:41:30;;;;;;;19.90;11.35;;;4.60;99.90;;;;;;4975089;28;20074;-78
2022/03/04 01:43:56;;;;;;;20.88;10.50;;;4.70;99.90;;;;;;4965218;28;20120;-77
2022/03/04 01:46:28;;;;;;;23.65;12.45;;;4.60;99.90;;;;;;4980476;28;20049;-78
2022/03/04 01:48:54;;;;;;;19.27;10.35;;;4.60;99.90;;;;;;4997351;28;20041;-79
2022/03/04 01:51:19;;;;;;;22.42;12.52;;;4.40;99.90;;;;;;4994057;28;20149;-79
2022/03/04 01:53:45;;;;;;;23.92;12.38;;;4.60;99.90;;;;;;4988641;28;20109;-79
2022/03/04 01:56:11;;;;;;;22.08;12.30;;;4.40;99.90;;;;;;4977209;28;20042;-79
2022/03/04 01:58:37;;;;;;;19.60;10.65;;;4.60;99.90;;;;;;4965909;28;20042;-78
2022/03/04 02:01:04;;;;;;;19.98;11.30;;;4.60;99.90;;;;;;4951966;28;20045;-78
2022/03/04 02:03:29;;;;;;;19.25;10.82;;;4.80;99.90;;;;;;4961563;28;20038;-79
2022/03/04 02:05:55;;;;;;;20.10;10.20;;;4.70;99.90;;;;;;4972489;28;20190;-78
2022/03/04 02:08:21;;;;;;;19.95;11.32;;;4.80;99.90;;;;;;4956494;28;20078;-79
2022/03/04 02:10:47;;;;;;;26.50;12.00;;;4.60;99.90;;;;;;4954262;28;20152;-79
2022/03/04 02:13:14;;;;;;;24.13;13.25;;;5.00;99.90;;;;;;4970800;28;20054;-78
2022/03/04 02:15:42;;;;;;;23.17;11.73;;;5.00;99.90;;;;;;4973288;28;20081;-79
2022/03/04 02:18:17;;;;;;;20.48;10.70;;;4.80;99.90;;;;;;4957501;28;20039;-77
2022/03/04 02:20:49;;;;;;;19.42;10.65;;;4.90;99.90;;;;;;4963370;28;20034;-78
2022/03/04 02:23:16;;;;;;;20.35;11.27;;;4.90;99.90;;;;;;4987600;28;20046;-78
2022/03/04 02:25:50;;;;;;;21.67;11.80;;;5.20;99.90;;;;;;4944562;28;20042;-78
2022/03/04 02:28:16;;;;;;;25.38;13.23;;;4.80;99.90;;;;;;4959770;28;20498;-79
2022/03/04 02:30:43;;;;;;;24.92;13.07;;;5.20;99.90;;;;;;4970947;28;20047;-79
2022/03/04 02:33:09;;;;;;;21.52;11.02;;;4.90;99.90;;;;;;4964965;28;20043;-78
2022/03/04 02:35:35;;;;;;;19.70;10.57;;;5.30;99.90;;;;;;4961652;28;20064;-78
2022/03/04 02:38:02;;;;;;;20.50;10.73;;;5.20;99.90;;;;;;4962000;28;20072;-79
2022/03/04 02:40:28;;;;;;;23.73;11.25;;;5.00;99.90;;;;;;4967460;28;20030;-78
2022/03/04 02:42:54;;;;;;;20.65;11.75;;;5.10;99.90;;;;;;4968949;28;20101;-78
2022/03/04 02:45:22;;;;;;;26.73;12.38;;;5.10;99.90;;;;;;4961713;28;20038;-79
2022/03/04 02:47:48;;;;;;;22.83;11.13;;;5.10;99.90;;;;;;4959689;28;20061;-79
2022/03/04 02:50:13;;;;;;;24.52;13.02;;;5.10;99.90;;;;;;4964930;28;20050;-79
2022/03/04 02:52:40;;;;;;;24.27;11.88;;;5.20;99.90;;;;;;4963331;28;20551;-78
2022/03/04 02:55:10;;;;;;;18.60;9.60;;;5.00;99.90;;;;;;4943665;28;20243;-79
2022/03/04 02:57:36;;;;;;;18.00;10.50;;;4.90;99.90;;;;;;4930489;28;20047;-80
2022/03/04 03:00:04;;;;;;;22.05;11.30;;;4.90;99.90;;;;;;4975200;28;20511;-77
2022/03/04 03:02:30;;;;;;;20.38;10.77;;;5.20;99.90;;;;;;4945348;28;20394;-79
2022/03/04 03:04:56;;;;;;;21.27;10.73;;;5.10;99.90;;;;;;4960179;28;20045;-79
2022/03/04 03:07:22;;;;;;;19.10;10.18;;;5.10;99.90;;;;;;4956249;28;20045;-77
2022/03/04 03:09:47;;;;;;;20.70;10.52;;;4.90;99.90;;;;;;4956180;28;20461;-77
2022/03/04 03:12:13;;;;;;;18.88;10.77;;;5.40;99.90;;;;;;4939729;28;20046;-78
2022/03/04 03:14:39;;;;;;;17.60;9.32;;;4.80;99.90;;;;;;4959798;28;20526;-77
2022/03/04 03:17:04;;;;;;;20.13;11.35;;;5.20;99.90;;;;;;4982681;28;20070;-79
2022/03/04 03:19:30;;;;;;;20.50;10.05;;;4.80;99.90;;;;;;4983114;28;20030;-77
2022/03/04 03:21:56;;;;;;;22.63;10.30;;;5.10;99.90;;;;;;4984286;28;20046;-78
2022/03/04 03:24:21;;;;;;;20.15;11.13;;;5.10;99.90;;;;;;4976402;28;20041;-78
2022/03/04 03:26:47;;;;;;;23.35;10.65;;;5.00;99.90;;;;;;4938076;28;20089;-79
2022/03/04 03:29:13;;;;;;;19.38;10.23;;;5.00;99.90;;;;;;4937480;28;20050;-77
2022/03/04 03:31:39;;;;;;;21.80;10.85;;;4.90;99.90;;;;;;4942196;28;20108;-79
2022/03/04 03:34:04;;;;;;;22.73;11.70;;;5.30;99.90;;;;;;4962436;28;20405;-78
2022/03/04 03:36:30;;;;;;;19.58;10.52;;;5.10;99.90;;;;;;4978192;28;20038;-77
2022/03/04 03:38:56;;;;;;;20.05;11.32;;;4.90;99.90;;;;;;4944624;28;20501;-76
2022/03/04 03:41:21;;;;;;;17.83;9.90;;;5.20;99.90;;;;;;4963231;28;20038;-76
2022/03/04 03:43:47;;;;;;;21.13;9.93;;;4.90;99.90;;;;;;4957332;28;20169;-79
2022/03/04 03:46:13;;;;;;;20.92;10.70;;;4.90;99.90;;;;;;4957683;28;20580;-78
2022/03/04 03:48:40;;;;;;;21.63;10.30;;;5.10;99.90;;;;;;4975441;28;20106;-78
2022/03/04 03:51:07;;;;;;;18.42;9.68;;;4.90;99.90;;;;;;4962056;28;20148;-77
2022/03/04 03:53:33;;;;;;;18.67;9.48;;;5.20;99.90;;;;;;4976743;28;20096;-77
2022/03/04 03:55:58;;;;;;;19.45;10.07;;;5.20;99.90;;;;;;4956373;28;20121;-78
2022/03/04 03:58:24;;;;;;;21.63;10.63;;;4.80;99.90;;;;;;4968035;28;20128;-78
2022/03/04 04:00:50;;;;;;;22.00;11.43;;;5.20;99.90;;;;;;4968044;28;20058;-79
2022/03/04 04:03:16;;;;;;;24.52;11.05;;;5.00;99.90;;;;;;4953686;28;20092;-77
2022/03/04 04:05:42;;;;;;;19.30;9.35;;;5.00;99.90;;;;;;4959870;28;20022;-79
2022/03/04 04:08:08;;;;;;;26.85;11.45;;;5.00;99.90;;;;;;4966444;28;20039;-78
2022/03/04 04:10:34;;;;;;;24.55;11.65;;;5.00;99.90;;;;;;4959069;28;20034;-76
2022/03/04 04:12:59;;;;;;;20.60;10.48;;;5.20;99.90;;;;;;4976051;28;20054;-78
2022/03/04 04:15:25;;;;;;;23.02;11.00;;;5.30;99.90;;;;;;4963348;28;20081;-78
2022/03/04 04:17:51;;;;;;;23.35;10.75;;;5.30;99.90;;;;;;4955461;28;20038;-78
2022/03/04 04:20:16;;;;;;;22.35;11.63;;;5.80;99.90;;;;;;4965984;28;20098;-76
2022/03/04 04:22:42;;;;;;;20.75;10.45;;;5.30;99.90;;;;;;4966298;28;20104;-76
2022/03/04 04:25:08;;;;;;;24.30;11.35;;;5.50;99.90;;;;;;4949430;28;20046;-79
2022/03/04 04:27:34;;;;;;;22.40;11.10;;;5.60;99.90;;;;;;4959623;28;20038;-78
2022/03/04 04:30:00;;;;;;;25.00;12.68;;;5.60;99.90;;;;;;4934233;28;20311;-77
2022/03/04 04:32:26;;;;;;;29.50;13.45;;;5.60;99.90;;;;;;4958422;28;20046;-77
2022/03/04 04:34:52;;;;;;;25.77;12.43;;;5.60;99.90;;;;;;4967985;28;20089;-78
2022/03/04 04:37:17;;;;;;;27.30;14.10;;;5.70;99.90;;;;;;4941600;28;20098;-77
2022/03/04 04:39:43;;;;;;;22.95;11.52;;;5.90;99.90;;;;;;4940782;28;20280;-77
2022/03/04 04:42:09;;;;;;;27.88;14.23;;;5.70;99.90;;;;;;4964236;28;20053;-79
2022/03/04 04:44:35;;;;;;;22.80;12.30;;;6.00;99.90;;;;;;4946978;28;20120;-78
2022/03/04 04:47:00;;;;;;;21.52;11.45;;;5.80;99.90;;;;;;4978974;28;20046;-77
2022/03/04 04:49:26;;;;;;;23.88;12.13;;;6.00;99.90;;;;;;4962071;28;20042;-79
2022/03/04 04:51:53;;;;;;;18.92;10.23;;;5.90;99.90;;;;;;4969175;28;20050;-79
2022/03/04 04:54:18;;;;;;;24.42;10.90;;;6.20;99.90;;;;;;4980886;28;20041;-77
2022/03/04 04:56:44;;;;;;;24.13;12.30;;;5.90;99.90;;;;;;4969010;28;20030;-78
2022/03/04 04:59:10;;;;;;;24.45;12.05;;;6.10;99.90;;;;;;4951651;28;20053;-77
2022/03/04 05:01:36;;;;;;;17.45;9.82;;;5.90;99.90;;;;;;4965118;28;20490;-77
2022/03/04 05:04:02;;;;;;;26.98;13.40;;;5.90;99.90;;;;;;4979145;28;20037;-79
2022/03/04 05:06:27;;;;;;;21.58;12.02;;;6.20;99.90;;;;;;4948438;28;20046;-77
2022/03/04 05:08:53;;;;;;;24.20;11.30;;;5.90;99.90;;;;;;4965891;28;20054;-77
2022/03/04 05:11:19;;;;;;;27.63;14.75;;;6.30;99.90;;;;;;4980605;28;20049;-79
2022/03/04 05:13:45;;;;;;;25.27;12.07;;;5.90;99.90;;;;;;4960856;28;20041;-80
2022/03/04 05:16:11;;;;;;;23.27;11.80;;;6.10;99.90;;;;;;5004983;28;20137;-80
2022/03/04 05:18:36;;;;;;;25.00;11.73;;;6.30;99.90;;;;;;4981653;28;20458;-78
2022/03/04 05:21:03;;;;;;;26.15;14.05;;;6.00;99.90;;;;;;4969120;28;20037;-78
2022/03/04 05:26:13;;;;;;;25.58;13.73;;;6.20;99.90;;;;;;4966339;28;20057;-78
2022/03/04 05:28:38;;;;;;;24.80;12.85;;;6.30;99.90;;;;;;4968388;28;20129;-80
2022/03/04 05:31:04;;;;;;;22.45;10.32;;;6.40;99.90;;;;;;4991082;28;20038;-77
2022/03/04 05:33:30;;;;;;;21.85;11.85;;;6.50;99.90;;;;;;4975662;28;20037;-79
2022/03/04 05:35:55;;;;;;;20.17;9.02;;;6.20;99.90;;;;;;4942348;28;20077;-78
2022/03/04 05:38:21;;;;;;;23.88;12.88;;;6.20;99.90;;;;;;4981115;28;20046;-78
2022/03/04 05:40:47;;;;;;;23.30;11.43;;;6.30;99.90;;;;;;4974055;28;20069;-77
2022/03/04 05:43:13;;;;;;;16.33;8.43;;;6.40;99.90;;;;;;4978064;28;20045;-79
2022/03/04 05:45:38;;;;;;;20.95;11.27;;;6.40;99.90;;;;;;4970365;28;20038;-78
2022/03/04 05:48:04;;;;;;;20.73;11.57;;;6.50;99.90;;;;;;4992784;28;20080;-77
2022/03/04 05:50:30;;;;;;;17.38;8.40;;;6.30;99.90;;;;;;4991689;28;20049;-77
2022/03/04 05:52:56;;;;;;;23.13;12.10;;;6.40;99.90;;;;;;4972387;28;20140;-77
2022/03/04 05:55:22;;;;;;;20.25;9.50;;;6.30;99.90;;;;;;4999618;28;20033;-77
2022/03/04 05:57:48;;;;;;;21.65;10.60;;;6.20;99.90;;;;;;4991732;28;20037;-78
2022/03/04 06:00:13;;;;;;;19.38;10.45;;;6.30;99.90;;;;;;4990656;28;20038;-77
2022/03/04 06:02:39;;;;;;;22.85;11.85;;;6.60;99.90;;;;;;4958726;28;20034;-78
2022/03/04 06:05:05;;;;;;;28.73;14.43;;;6.60;99.90;;;;;;4978994;28;20503;-78
2022/03/04 06:07:33;;;;;;;26.70;12.80;;;6.30;99.90;;;;;;4952578;28;20044;-79
2022/03/04 06:09:59;;;;;;;25.70;12.82;;;6.40;99.90;;;;;;4961269;28;20469;-76
2022/03/04 06:12:25;;;;;;;23.95;13.00;;;6.40;99.90;;;;;;4979100;28;20058;-77
2022/03/04 06:14:51;;;;;;;21.63;11.75;;;6.50;99.90;;;;;;4978513;28;20091;-78
2022/03/04 06:17:17;;;;;;;21.58;12.52;;;6.50;99.90;;;;;;4987789;28;20041;-78
2022/03/04 06:19:44;;;;;;;29.05;15.10;;;6.50;99.90;;;;;;4977047;28;20045;-79
2022/03/04 06:22:10;;;;;;;28.85;14.32;;;6.90;99.90;;;;;;4980858;28;20030;-77
2022/03/04 06:24:36;;;;;;;20.83;10.73;;;6.80;99.90;;;;;;4980168;28;20040;-77
2022/03/04 06:27:02;;;;;;;25.13;14.55;;;6.50;99.90;;;;;;4964149;28;20477;-77
2022/03/04 06:29:28;;;;;;;26.33;13.95;;;4.80;99.90;;;;;;4966347;28;20037;-78
2022/03/04 06:31:54;;;;;;;26.10;13.38;;;6.60;99.90;;;;;;4987691;28;20072;-78
2022/03/04 06:34:20;;;;;;;23.67;11.48;;;6.50;99.90;;;;;;4974635;28;20072;-77
2022/03/04 06:36:45;;;;;;;24.60;12.65;;;6.90;99.90;;;;;;4997662;28;20034;-78
2022/03/04 06:39:12;;;;;;;24.27;13.88;;;6.80;99.90;;;;;;4960800;28;20148;-78
2022/03/04 06:41:38;;;;;;;21.73;11.10;;;6.80;99.90;;;;;;4967492;28;20045;-79
2022/03/04 06:44:04;;;;;;;20.00;9.45;;;6.70;99.90;;;;;;4975915;28;20046;-81
2022/03/04 06:46:29;;;;;;;25.52;13.25;;;6.70;99.90;;;;;;4970480;28;20034;-80
2022/03/04 06:48:55;;;;;;;25.00;13.65;;;6.80;99.90;;;;;;4972739;28;20042;-81
2022/03/04 06:51:21;;;;;;;26.65;13.43;;;6.70;99.90;;;;;;4959907;28;20108;-82
2022/03/04 06:53:47;;;;;;;24.65;12.55;;;6.60;99.90;;;;;;4968885;28;20034;-80
2022/03/04 06:56:16;;;;;;;23.35;13.00;;;6.70;99.90;;;;;;4973976;28;20070;-80
2022/03/04 06:58:41;;;;;;;23.30;12.38;;;6.90;99.90;;;;;;4977996;28;20486;-81
2022/03/04 07:01:07;;;;;;;26.08;14.82;;;6.70;99.90;;;;;;4992463;28;20119;-80
2022/03/04 07:03:33;;;;;;;24.83;13.57;;;6.70;99.90;;;;;;4973642;28;20041;-82
2022/03/04 07:06:00;;;;;;;25.08;12.60;;;6.70;99.90;;;;;;4959503;28;20045;-81
2022/03/04 07:08:26;;;;;;;23.02;12.15;;;7.00;99.90;;;;;;4987357;28;20401;-80
2022/03/04 07:10:51;;;;;;;30.48;15.23;;;7.00;99.90;;;;;;4976685;28;20050;-82
2022/03/04 07:13:19;;;;;;;24.52;13.07;;;6.90;99.90;;;;;;4991425;28;20057;-80
2022/03/04 07:15:45;;;;;;;24.60;13.80;;;6.80;99.90;;;;;;4977095;28;20069;-79
2022/03/04 07:18:11;;;;;;;23.90;13.20;;;6.80;99.90;;;;;;4977151;28;20045;-81
2022/03/04 07:20:37;;;;;;;23.15;12.75;;;6.90;99.90;;;;;;5024140;28;20078;-82
2022/03/04 07:23:03;;;;;;;21.17;11.95;;;7.00;99.90;;;;;;5017830;28;20088;-82
2022/03/04 07:25:29;;;;;;;21.52;11.07;;;7.10;99.90;;;;;;4985767;28;20057;-81
2022/03/04 07:27:55;;;;;;;24.70;13.57;;;6.90;99.90;;;;;;4997046;28;20123;-83
2022/03/04 07:30:21;;;;;;;21.02;11.07;;;6.90;99.90;;;;;;4981646;28;20092;-83
2022/03/04 07:32:46;;;;;;;22.20;11.23;;;6.70;99.90;;;;;;4994995;28;20923;-82
2022/03/04 07:35:13;;;;;;;24.70;11.38;;;6.80;99.90;;;;;;4960823;28;20042;-83
2022/03/04 07:37:40;;;;;;;24.30;11.88;;;6.90;99.90;;;;;;5000851;28;20038;-82
2022/03/04 07:40:08;;;;;;;22.48;12.70;;;7.00;99.90;;;;;;5000798;28;20108;-80
2022/03/04 07:42:34;;;;;;;22.30;12.63;;;6.70;99.90;;;;;;4977711;28;20048;-81
2022/03/04 07:45:00;;;;;;;18.45;10.68;;;7.10;99.90;;;;;;4979025;28;20120;-79
2022/03/04 07:47:29;;;;;;;21.55;12.05;;;6.80;99.90;;;;;;5013681;23;20034;-74
2022/03/04 07:49:55;;;;;;;24.25;12.25;;;7.10;99.90;;;;;;4985257;28;20116;-73
2022/03/04 07:52:20;;;;;;;24.52;13.05;;;6.70;99.90;;;;;;4979101;28;20656;-74
2022/03/04 07:54:46;;;;;;;24.23;12.35;;;6.70;99.90;;;;;;4994976;28;20034;-73
2022/03/04 07:57:12;;;;;;;21.30;10.95;;;6.70;99.90;;;;;;4992857;28;20088;-74
2022/03/04 07:59:38;;;;;;;21.80;11.98;;;6.70;99.90;;;;;;4976738;28;20034;-73
2022/03/04 08:02:04;;;;;;;21.35;12.65;;;6.80;99.90;;;;;;4994922;28;20386;-72
2022/03/04 08:04:29;;;;;;;24.35;13.48;;;7.00;99.90;;;;;;4989442;28;20038;-72
2022/03/04 08:06:55;;;;;;;23.58;13.55;;;6.90;99.90;;;;;;5000312;28;20045;-72
2022/03/04 08:09:21;;;;;;;26.25;14.23;;;7.00;99.90;;;;;;4985633;28;20050;-72
2022/03/04 08:11:47;;;;;;;22.92;13.13;;;7.00;99.90;;;;;;4993658;28;20405;-72
2022/03/04 08:14:13;;;;;;;26.02;14.32;;;7.10;99.90;;;;;;4979540;28;20056;-73
2022/03/04 08:16:39;;;;;;;22.30;11.90;;;7.00;99.90;;;;;;4994215;28;20038;-73
2022/03/04 08:19:05;;;;;;;19.83;11.40;;;7.10;99.90;;;;;;5000604;28;20033;-72
2022/03/04 08:21:31;;;;;;;19.17;11.30;;;7.20;99.90;;;;;;4976175;28;20048;-73
2022/03/04 08:23:57;;;;;;;18.48;10.57;;;7.10;99.90;;;;;;4983527;28;20034;-73
2022/03/04 08:26:23;;;;;;;25.98;12.45;;;6.70;99.90;;;;;;4994504;28;20890;-72
2022/03/04 08:28:49;;;;;;;22.83;12.65;;;7.00;99.90;;;;;;4990844;28;20053;-74
2022/03/04 08:31:15;;;;;;;22.48;13.60;;;6.70;99.90;;;;;;4973875;28;20061;-72
2022/03/04 08:33:43;;;;;;;20.13;12.00;;;6.90;99.90;;;;;;5004621;28;20041;-72
2022/03/04 08:36:09;;;;;;;20.70;10.80;;;6.60;99.90;;;;;;4977211;28;20049;-72
2022/03/04 08:38:35;;;;;;;21.02;12.30;;;6.60;99.90;;;;;;4978353;28;20125;-72
2022/03/04 08:41:01;;;;;;;23.65;13.80;;;7.60;99.90;;;;;;4994081;28;20168;-71
2022/03/04 08:43:27;;;;;;;24.50;12.38;;;6.50;99.90;;;;;;4970366;28;20081;-71
2022/03/04 08:45:53;;;;;;;21.75;13.57;;;6.40;99.90;;;;;;4973116;28;20763;-70
2022/03/04 08:48:24;;;;;;;23.35;12.35;;;6.70;99.90;;;;;;4983018;28;20049;-70
2022/03/04 08:50:51;;;;;;;26.98;14.82;;;6.50;99.90;;;;;;4992779;28;20068;-71
2022/03/04 08:53:20;;;;;;;23.13;13.13;;;6.70;99.90;;;;;;5018205;28;20041;-71
2022/03/04 08:55:47;;;;;;;25.50;14.25;;;7.20;99.90;;;;;;4997951;28;20835;-71
2022/03/04 08:58:12;;;;;;;22.85;13.30;;;6.90;99.90;;;;;;4997252;28;20215;-72
2022/03/04 09:00:38;;;;;;;21.67;11.65;;;7.00;99.90;;;;;;4974093;28;20050;-71
2022/03/04 09:03:04;;;;;;;23.92;11.80;;;6.90;99.90;;;;;;4987213;28;20041;-72
2022/03/04 09:05:36;;;;;;;22.63;12.05;;;6.80;99.90;;;;;;4984471;28;20489;-72
2022/03/04 09:08:02;;;;;;;23.10;14.07;;;6.50;99.90;;;;;;4968466;28;20191;-71
2022/03/04 09:10:28;;;;;;;20.38;11.60;;;6.70;99.90;;;;;;4987703;28;20042;-71
2022/03/04 09:12:54;;;;;;;20.67;12.38;;;7.00;99.90;;;;;;4988011;28;20056;-71
2022/03/04 09:15:20;;;;;;;19.90;11.75;;;6.90;99.90;;;;;;4988423;28;20803;-72
2022/03/04 09:17:46;;;;;;;23.33;11.70;;;7.00;99.90;;;;;;4969883;28;20485;-74
2022/03/04 09:20:14;;;;;;;20.25;10.20;;;7.10;99.90;;;;;;4985517;28;20042;-71
2022/03/04 09:22:40;;;;;;;20.98;11.75;;;7.10;99.90;;;;;;4968417;28;20098;-71
2022/03/04 09:25:09;;;;;;;20.88;12.35;;;7.00;99.90;;;;;;4985534;28;20038;-72
2022/03/04 09:27:35;;;;;;;18.85;10.43;;;6.50;99.90;;;;;;4961436;28;20136;-71
2022/03/04 09:30:01;;;;;;;21.77;11.75;;;6.10;99.90;;;;;;4970010;28;20394;-72
2022/03/04 09:32:27;;;;;;;21.23;11.50;;;5.80;99.90;;;;;;4933501;28;20142;-71
2022/03/04 09:34:53;;;;;;;19.13;10.73;;;6.10;99.90;;;;;;4983137;28;20124;-72
2022/03/04 09:37:18;;;;;;;18.60;11.60;;;7.00;99.90;;;;;;4965761;28;20046;-72
2022/03/04 09:39:44;;;;;;;18.25;10.98;;;6.60;99.90;;;;;;4984985;28;20049;-71
2022/03/04 09:42:12;;;;;;;19.20;11.10;;;5.90;99.90;;;;;;4968616;28;20073;-71
2022/03/04 09:44:40;;;;;;;18.85;11.18;;;5.90;99.90;;;;;;4969112;28;20053;-71
2022/03/04 09:47:09;;;;;;;18.77;11.73;;;5.90;99.90;;;;;;4984582;28;20045;-72
2022/03/04 09:49:41;;;;;;;18.95;10.93;;;5.60;99.90;;;;;;4995038;28;20072;-73
2022/03/04 09:52:08;;;;;;;19.75;10.57;;;5.30;99.90;;;;;;5023642;28;20049;-72
2022/03/04 09:54:34;;;;;;;22.85;10.43;;;6.00;99.90;;;;;;5006312;28;20045;-73
2022/03/04 09:57:00;;;;;;;17.25;10.82;;;5.80;99.90;;;;;;5024994;28;20648;-71
2022/03/04 09:59:33;;;;;;;17.40;10.63;;;5.20;99.90;;;;;;5034752;28;20423;-71
2022/03/04 10:01:59;;;;;;;16.40;10.18;;;5.20;99.90;;;;;;5020180;28;20614;-73
2022/03/04 10:04:28;;;;;;;16.50;11.07;;;5.30;99.90;;;;;;5024038;28;20045;-72
2022/03/04 10:06:54;;;;;;;15.18;9.90;;;5.40;99.90;;;;;;5011712;28;20071;-71
2022/03/04 10:09:44;;;;;;;19.13;11.00;;;5.70;99.90;;;;;;4987133;28;20492;-72
2022/03/04 10:12:11;;;;;;;17.52;10.88;;;5.60;99.90;;;;;;5025047;28;20503;-74
2022/03/04 10:15:15;;;;;;;15.05;9.00;;;5.60;99.90;;;;;;5024976;28;20045;-74
2022/03/04 10:17:53;;;;;;;15.10;9.82;;;5.50;99.90;;;;;;5009061;28;20714;-74
2022/03/04 10:20:19;;;;;;;17.92;10.55;;;6.00;99.90;;;;;;5024161;28;20170;-73
2022/03/04 10:22:46;;;;;;;17.05;10.80;;;5.90;99.90;;;;;;5009008;28;20124;-74
2022/03/04 10:25:26;;;;;;;14.05;8.77;;;6.00;99.90;;;;;;5025069;28;20052;-73
2022/03/04 10:27:53;;;;;;;16.55;9.60;;;6.00;99.90;;;;;;5024644;28;20126;-72
2022/03/04 10:30:33;;;;;;;13.88;9.13;;;5.60;99.90;;;;;;5041638;28;20136;-71
2022/03/04 10:33:09;;;;;;;12.73;7.95;;;5.60;99.90;;;;;;5026480;28;20370;-72
2022/03/04 10:35:36;;;;;;;16.13;9.65;;;5.70;99.90;;;;;;5028253;28;20053;-71
2022/03/04 10:38:04;;;;;;;14.02;10.15;;;5.70;99.90;;;;;;5028868;28;20162;-71
2022/03/04 10:40:35;;;;;;;14.40;9.63;;;6.10;99.90;;;;;;5028173;28;20094;-72
2022/03/04 10:43:05;;;;;;;15.75;10.15;;;5.80;99.90;;;;;;5024089;28;20056;-72
2022/03/04 10:45:36;;;;;;;15.30;9.80;;;6.20;99.90;;;;;;5025573;28;20041;-72
2022/03/04 10:48:11;;;;;;;17.30;10.48;;;6.20;99.90;;;;;;5027382;28;20131;-72
2022/03/04 10:50:51;;;;;;;14.70;9.43;;;5.90;99.90;;;;;;5040157;28;20060;-72
2022/03/04 10:53:16;;;;;;;14.50;9.82;;;6.00;99.90;;;;;;5030881;28;20147;-72
2022/03/04 10:55:47;;;;;;;14.43;9.88;;;6.20;99.90;;;;;;5024858;28;20048;-72
2022/03/04 10:58:21;;;;;;;14.48;9.50;;;6.30;99.90;;;;;;5027797;28;20048;-72
2022/03/04 11:00:48;;;;;;;14.68;9.27;;;6.40;99.90;;;;;;5013139;28;20036;-73
2022/03/04 11:03:17;;;;;;;14.20;9.20;;;6.20;99.90;;;;;;5011765;28;20045;-72
2022/03/04 11:05:43;;;;;;;11.70;7.18;;;6.40;99.90;;;;;;5028697;28;20130;-72
2022/03/04 11:08:10;;;;;;;14.07;9.25;;;6.40;99.90;;;;;;5011537;28;20164;-72
2022/03/04 11:10:36;;;;;;;11.73;8.00;;;6.30;99.90;;;;;;5027856;28;20045;-73
2022/03/04 11:13:06;;;;;;;13.25;8.77;;;6.50;99.90;;;;;;5030759;28;20073;-73
2022/03/04 11:15:33;;;;;;;13.43;8.15;;;6.50;99.90;;;;;;5027255;28;20055;-73
2022/03/04 11:18:03;;;;;;;14.15;8.80;;;6.50;99.90;;;;;;5044929;28;20620;-72
2022/03/04 11:20:29;;;;;;;13.30;9.43;;;6.60;99.90;;;;;;5044317;28;20055;-72
2022/03/04 11:22:55;;;;;;;12.30;8.32;;;6.50;99.90;;;;;;5027188;28;20131;-71
2022/03/04 11:25:24;;;;;;;13.70;9.02;;;6.60;99.90;;;;;;5028581;28;20644;-71
2022/03/04 11:27:52;;;;;;;16.23;10.50;;;6.80;99.90;;;;;;5049178;28;20060;-72
2022/03/04 11:30:42;;;;;;;17.60;9.48;;;7.20;99.90;;;;;;5012088;28;20446;-72
2022/03/04 11:33:16;;;;;;;11.80;7.90;;;7.20;99.90;;;;;;5022511;28;20075;-72
2022/03/04 11:35:41;;;;;;;11.75;6.63;;;7.20;99.90;;;;;;5045859;28;20048;-73
2022/03/04 11:38:10;;;;;;;10.77;7.57;;;7.20;99.90;;;;;;5027930;28;20049;-74
2022/03/04 11:40:38;;;;;;;13.48;8.65;;;7.00;99.90;;;;;;5012814;28;20143;-72
2022/03/04 11:43:09;;;;;;;13.57;8.75;;;6.80;99.90;;;;;;5028089;28;20556;-72
2022/03/04 11:45:36;;;;;;;21.05;10.55;;;6.90;99.90;;;;;;5026501;28;20099;-71
2022/03/04 11:48:08;;;;;;;15.57;9.52;;;6.80;99.90;;;;;;5010292;28;20147;-71
2022/03/04 11:50:46;;;;;;;14.75;9.45;;;6.70;99.90;;;;;;5038108;28;20405;-71
2022/03/04 11:53:19;;;;;;;14.40;8.65;;;6.90;99.90;;;;;;5041687;28;20091;-71
2022/03/04 11:56:14;;;;;;;14.55;9.45;;;6.80;99.90;;;;;;5026922;28;20160;-71
2022/03/04 11:58:59;;;;;;;15.98;8.90;;;6.90;99.90;;;;;;5026851;28;20132;-71
2022/03/04 12:01:35;;;;;;;14.25;8.00;;;6.90;99.90;;;;;;5041005;28;20048;-70
2022/03/04 12:04:12;;;;;;;15.23;9.70;;;6.80;99.90;;;;;;5023874;28;20059;-72
2022/03/04 12:06:39;;;;;;;13.07;8.38;;;6.80;99.90;;;;;;5026269;28;20048;-73
2022/03/04 12:09:27;;;;;;;14.88;8.80;;;6.90;99.90;;;;;;5013795;28;20085;-71
2022/03/04 12:12:13;;;;;;;15.65;10.30;;;6.90;99.90;;;;;;5024711;28;20120;-71
2022/03/04 12:14:54;;;;;;;16.30;7.43;;;7.20;99.90;;;;;;5021970;28;20463;-72
2022/03/04 12:17:21;;;;;;;14.27;8.50;;;7.00;99.90;;;;;;5026832;28;20040;-72
2022/03/04 12:19:48;;;;;;;15.48;7.95;;;7.00;99.90;;;;;;5010012;28;20065;-72
2022/03/04 12:22:16;;;;;;;16.38;10.38;;;7.10;99.90;;;;;;5031047;28;20041;-72
2022/03/04 12:24:56;;;;;;;17.02;10.43;;;6.90;99.90;;;;;;5017136;28;20052;-71
2022/03/04 12:27:37;;;;;;;18.23;10.43;;;7.00;99.90;;;;;;5009996;28;20068;-72
2022/03/04 12:30:20;;;;;;;18.05;10.77;;;7.40;99.90;;;;;;5010152;28;20433;-73
2022/03/04 12:32:51;;;;;;;16.73;9.98;;;7.30;99.90;;;;;;5027158;28;20051;-72
2022/03/04 12:35:17;;;;;;;17.25;11.65;;;7.20;99.90;;;;;;5028689;28;20123;-72
2022/03/04 12:37:43;;;;;;;17.98;11.60;;;7.00;99.90;;;;;;5009048;28;20457;-73
2022/03/04 12:40:10;;;;;;;13.85;6.95;;;7.30;99.90;;;;;;4990582;28;20684;-71
2022/03/04 12:42:36;;;;;;;18.55;11.48;;;7.50;99.90;;;;;;5001107;28;20041;-71
2022/03/04 12:45:02;;;;;;;15.80;9.80;;;7.50;99.90;;;;;;5025416;28;20052;-74
2022/03/04 12:47:28;;;;;;;18.65;11.55;;;7.50;99.90;;;;;;5025795;28;20049;-72
2022/03/04 12:49:54;;;;;;;16.92;10.30;;;8.00;99.90;;;;;;5013313;28;20069;-73
2022/03/04 12:52:20;;;;;;;19.73;12.30;;;7.50;99.90;;;;;;5003211;28;20056;-72